createdAt,value
2023-05-10T00:00:48.723Z,7.95
2023-05-10T00:03:15.383Z,7.32
2023-05-10T00:05:42.174Z,7.18
2023-05-10T00:08:08.949Z,7.65
2023-05-10T00:10:35.533Z,6.75
2023-05-10T00:13:02.248Z,6.38
2023-05-10T00:15:28.953Z,6.88
2023-05-10T00:17:56.909Z,5.80
2023-05-10T00:20:23.741Z,5.47
2023-05-10T00:22:50.473Z,6.03
2023-05-10T00:25:17.270Z,5.45
2023-05-10T00:27:43.877Z,6.10
2023-05-10T00:30:11.789Z,6.50
2023-05-10T00:32:38.454Z,6.03
2023-05-10T00:35:07.261Z,6.80
2023-05-10T00:37:33.908Z,7.13
2023-05-10T00:40:00.499Z,7.53
2023-05-10T00:42:27.413Z,7.68
2023-05-10T00:44:55.150Z,7.50
2023-05-10T00:47:22.043Z,7.78
2023-05-10T00:49:48.847Z,8.48
2023-05-10T00:52:16.900Z,8.15
2023-05-10T00:54:43.659Z,7.95
2023-05-10T00:57:11.110Z,7.65
2023-05-10T00:59:37.813Z,7.60
2023-05-10T01:02:04.608Z,8.90
2023-05-10T01:04:31.252Z,7.70
2023-05-10T01:06:57.859Z,7.63
2023-05-10T01:09:25.972Z,7.82
2023-05-10T01:11:53.140Z,7.88
2023-05-10T01:14:20.496Z,8.57
2023-05-10T01:16:49.362Z,9.73
2023-05-10T01:19:22.873Z,8.90
2023-05-10T01:21:57.129Z,11.38
2023-05-10T01:24:46.460Z,11.88
2023-05-10T01:27:26.269Z,14.07
2023-05-10T01:30:36.061Z,14.23
2023-05-10T01:33:12.060Z,16.20
2023-05-10T01:35:42.622Z,15.15
2023-05-10T01:38:17.206Z,14.60
2023-05-10T01:40:53.651Z,15.18
2023-05-10T01:43:26.685Z,14.07
2023-05-10T01:46:01.993Z,14.35
2023-05-10T01:48:31.891Z,13.55
2023-05-10T01:51:00.635Z,14.80
2023-05-10T01:53:28.597Z,15.23
2023-05-10T01:55:57.033Z,14.82
2023-05-10T01:58:28.205Z,16.33
2023-05-10T02:00:55.574Z,16.42
2023-05-10T02:03:24.974Z,16.98
2023-05-10T02:05:54.599Z,18.02
2023-05-10T02:08:23.485Z,16.80
2023-05-10T02:10:52.923Z,17.33
2023-05-10T02:13:20.448Z,17.85
2023-05-10T02:15:48.965Z,19.55
2023-05-10T02:18:16.658Z,20.00
2023-05-10T02:20:46.317Z,18.35
2023-05-10T02:23:15.146Z,21.23
2023-05-10T02:25:43.984Z,20.00
2023-05-10T02:28:12.681Z,21.42
2023-05-10T02:30:40.341Z,23.98
2023-05-10T02:33:07.438Z,23.50
2023-05-10T02:35:35.786Z,22.23
2023-05-10T02:38:03.225Z,24.65
2023-05-10T02:40:33.414Z,26.83
2023-05-10T02:43:03.315Z,24.75
2023-05-10T02:45:33.018Z,26.85
2023-05-10T02:48:00.398Z,25.75
2023-05-10T02:50:28.814Z,28.67
2023-05-10T02:53:00.560Z,26.85
2023-05-10T02:55:33.874Z,29.40
2023-05-10T02:58:02.507Z,29.60
2023-05-10T03:00:29.415Z,30.00
2023-05-10T03:02:56.442Z,30.45
2023-05-10T03:05:32.558Z,31.83
2023-05-10T03:08:02.859Z,30.77
2023-05-10T03:10:46.385Z,31.60
2023-05-10T03:13:34.198Z,29.80
2023-05-10T03:16:16.012Z,31.10
2023-05-10T03:21:45.871Z,31.30
2023-05-10T03:24:16.633Z,30.33
2023-05-10T03:26:50.228Z,29.00
2023-05-10T03:29:19.157Z,29.27
2023-05-10T03:31:47.608Z,29.85
2023-05-10T03:34:34.695Z,28.58
2023-05-10T03:37:20.313Z,29.58
2023-05-10T03:39:51.266Z,29.15
2023-05-10T03:42:43.382Z,31.13
2023-05-10T03:45:39.279Z,29.73
2023-05-10T03:48:11.896Z,30.67
2023-05-10T03:51:06.371Z,32.15
2023-05-10T03:54:03.974Z,32.33
2023-05-10T03:56:31.142Z,33.63
2023-05-10T03:58:59.612Z,32.00
2023-05-10T04:01:26.404Z,33.80
2023-05-10T04:03:53.091Z,33.20
2023-05-10T04:06:19.842Z,33.05
2023-05-10T04:08:46.424Z,32.35
2023-05-10T04:11:13.411Z,32.42
2023-05-10T04:13:40.167Z,33.08
2023-05-10T04:16:08.305Z,33.78
2023-05-10T04:18:35.003Z,31.60
2023-05-10T04:21:01.699Z,34.15
2023-05-10T04:23:28.320Z,33.53
2023-05-10T04:26:00.433Z,33.15
2023-05-10T04:28:26.977Z,33.22
2023-05-10T04:30:53.627Z,33.45
2023-05-10T04:33:21.626Z,33.28
2023-05-10T04:35:48.169Z,31.67
2023-05-10T04:38:14.811Z,33.95
2023-05-10T04:40:41.470Z,33.33
2023-05-10T04:43:08.047Z,33.15
2023-05-10T04:45:37.885Z,31.55
2023-05-10T04:48:05.258Z,33.05
2023-05-10T04:50:33.163Z,32.22
2023-05-10T04:53:00.049Z,32.60
2023-05-10T04:55:26.671Z,32.58
2023-05-10T04:57:53.553Z,34.35
2023-05-10T05:00:20.618Z,33.17
2023-05-10T05:02:47.218Z,33.35
2023-05-10T05:05:13.896Z,32.95
2023-05-10T05:07:41.868Z,35.05
2023-05-10T05:10:09.722Z,34.05
2023-05-10T05:12:36.504Z,32.55
2023-05-10T05:15:03.514Z,34.30
2023-05-10T05:17:31.261Z,32.88
2023-05-10T05:20:00.807Z,33.15
2023-05-10T05:22:27.496Z,33.92
2023-05-10T05:24:55.518Z,34.03
2023-05-10T05:27:22.201Z,34.17
2023-05-10T05:29:48.848Z,32.00
2023-05-10T05:32:15.356Z,34.05
2023-05-10T05:34:41.998Z,33.78
2023-05-10T05:37:08.638Z,33.47
2023-05-10T05:39:36.923Z,33.55
2023-05-10T05:42:05.211Z,34.47
2023-05-10T05:44:31.825Z,33.00
2023-05-10T05:46:58.491Z,32.85
2023-05-10T05:49:25.127Z,33.67
2023-05-10T05:51:51.845Z,34.80
2023-05-10T05:54:18.485Z,35.30
2023-05-10T05:56:45.167Z,35.05
2023-05-10T05:59:13.090Z,34.42
2023-05-10T06:01:40.276Z,34.72
2023-05-10T06:04:07.158Z,32.13
2023-05-10T06:06:33.923Z,32.38
2023-05-10T06:09:00.544Z,32.33
2023-05-10T06:11:27.107Z,33.63
2023-05-10T06:13:53.761Z,30.63
2023-05-10T06:16:21.718Z,32.13
2023-05-10T06:18:48.360Z,32.53
2023-05-10T06:21:14.999Z,33.40
2023-05-10T06:23:41.658Z,32.88
2023-05-10T06:26:08.291Z,30.77
2023-05-10T06:28:34.984Z,31.70
2023-05-10T06:31:01.684Z,30.00
2023-05-10T06:33:29.639Z,31.80
2023-05-10T06:35:56.203Z,29.58
2023-05-10T06:38:22.777Z,29.88
2023-05-10T06:40:49.426Z,29.63
2023-05-10T06:43:16.178Z,29.23
2023-05-10T06:45:42.898Z,28.23
2023-05-10T06:48:09.643Z,28.73
2023-05-10T06:50:37.620Z,28.70
2023-05-10T06:53:04.171Z,27.60
2023-05-10T06:55:30.811Z,24.30
2023-05-10T06:57:57.450Z,23.63
2023-05-10T07:00:24.226Z,22.98
2023-05-10T07:02:50.929Z,22.55
2023-05-10T07:05:17.766Z,22.42
2023-05-10T07:07:45.991Z,23.75
2023-05-10T07:10:12.593Z,22.95
2023-05-10T07:12:39.294Z,23.35
2023-05-10T07:15:07.328Z,23.08
2023-05-10T07:17:34.031Z,21.40
2023-05-10T07:20:01.704Z,20.35
2023-05-10T07:22:28.365Z,20.73
2023-05-10T07:24:56.515Z,22.38
2023-05-10T07:27:23.185Z,21.63
2023-05-10T07:29:49.820Z,19.73
2023-05-10T07:32:16.425Z,20.95
2023-05-10T07:34:43.090Z,22.17
2023-05-10T07:37:09.825Z,21.58
2023-05-10T07:39:36.496Z,21.25
2023-05-10T07:42:04.619Z,20.27
2023-05-10T07:44:31.237Z,21.58
2023-05-10T07:46:57.810Z,21.35
2023-05-10T07:49:24.434Z,21.05
2023-05-10T07:51:51.077Z,22.17
2023-05-10T07:54:17.853Z,22.17
2023-05-10T07:56:44.476Z,20.50
2023-05-10T07:59:16.303Z,20.67
2023-05-10T08:01:43.049Z,20.60
2023-05-10T08:04:09.805Z,21.95
2023-05-10T08:06:36.570Z,21.02
2023-05-10T08:09:03.316Z,22.42
2023-05-10T08:11:29.892Z,21.58
2023-05-10T08:13:56.442Z,21.52
2023-05-10T08:16:24.502Z,22.48
2023-05-10T08:18:51.196Z,22.25
2023-05-10T08:21:17.858Z,22.58
2023-05-10T08:23:44.522Z,22.13
2023-05-10T08:26:11.240Z,21.55
2023-05-10T08:28:37.874Z,21.38
2023-05-10T08:31:05.387Z,21.42
2023-05-10T08:33:33.522Z,21.58
2023-05-10T08:36:00.160Z,21.92
2023-05-10T08:38:26.756Z,21.23
2023-05-10T08:40:55.795Z,20.40
2023-05-10T08:43:22.781Z,20.10
2023-05-10T08:45:51.555Z,20.40
2023-05-10T08:48:18.559Z,20.10
2023-05-10T08:50:48.286Z,18.10
2023-05-10T08:53:17.194Z,17.42
2023-05-10T08:55:46.799Z,16.42
2023-05-10T08:58:13.446Z,17.17
2023-05-10T09:00:40.850Z,17.45
2023-05-10T09:03:07.478Z,15.32
2023-05-10T09:05:34.146Z,15.52
2023-05-10T09:08:02.147Z,15.65
2023-05-10T09:10:30.693Z,15.90
2023-05-10T09:12:59.362Z,14.48
2023-05-10T09:15:27.217Z,15.50
2023-05-10T09:17:55.276Z,14.50
2023-05-10T09:20:21.918Z,13.63
2023-05-10T09:22:48.848Z,14.35
2023-05-10T09:25:17.985Z,14.10
2023-05-10T09:27:47.228Z,13.88
2023-05-10T09:30:17.383Z,14.45
2023-05-10T09:32:45.643Z,14.45
2023-05-10T09:35:14.115Z,14.13
2023-05-10T09:37:41.069Z,14.93
2023-05-10T09:40:08.989Z,15.10
2023-05-10T09:42:36.931Z,16.27
2023-05-10T09:45:04.831Z,15.73
2023-05-10T09:47:33.129Z,17.75
2023-05-10T09:49:59.738Z,17.35
2023-05-10T09:52:26.264Z,18.70
2023-05-10T09:54:54.281Z,19.35
2023-05-10T09:57:22.104Z,18.50
2023-05-10T09:59:50.528Z,18.92
2023-05-10T10:02:17.472Z,19.05
2023-05-10T10:04:44.053Z,18.20
2023-05-10T10:07:10.603Z,18.40
2023-05-10T10:09:37.216Z,18.13
2023-05-10T10:12:04.370Z,18.23
2023-05-10T10:14:31.135Z,17.42
2023-05-10T10:19:33.638Z,16.67
2023-05-10T10:22:01.244Z,16.88
2023-05-10T10:24:27.811Z,17.15
2023-05-10T10:27:00.893Z,16.33
2023-05-10T10:29:38.858Z,15.38
2023-05-10T10:32:20.400Z,14.93
2023-05-10T10:34:47.544Z,14.30
2023-05-10T10:37:14.441Z,14.32
2023-05-10T10:39:40.999Z,14.98
2023-05-10T10:42:07.660Z,16.02
2023-05-10T10:44:37.284Z,14.00
2023-05-10T10:47:06.379Z,13.23
2023-05-10T10:49:39.195Z,14.05
2023-05-10T10:52:23.683Z,12.38
2023-05-10T10:54:54.079Z,12.85
2023-05-10T10:57:21.289Z,12.60
2023-05-10T10:59:48.186Z,13.23
2023-05-10T11:02:43.672Z,13.13
2023-05-10T11:05:45.764Z,12.35
2023-05-10T11:08:19.626Z,13.57
2023-05-10T11:11:05.164Z,13.98
2023-05-10T11:13:35.109Z,14.20
2023-05-10T11:16:15.164Z,14.23
2023-05-10T11:18:52.654Z,15.20
2023-05-10T11:21:19.625Z,15.55
2023-05-10T11:23:51.920Z,15.02
2023-05-10T11:26:18.946Z,17.65
2023-05-10T11:28:46.753Z,18.88
2023-05-10T11:31:15.094Z,19.67
2023-05-10T11:33:45.017Z,19.30
2023-05-10T11:36:12.744Z,21.65
2023-05-10T11:38:39.278Z,22.75
2023-05-10T11:41:09.310Z,21.90
2023-05-10T11:43:36.021Z,21.58
2023-05-10T11:46:03.097Z,22.52
2023-05-10T11:48:30.796Z,20.92
2023-05-10T11:50:57.540Z,19.98
2023-05-10T11:53:25.876Z,22.48
2023-05-10T11:55:52.663Z,20.65
2023-05-10T11:58:20.744Z,19.73
2023-05-10T12:00:48.111Z,18.65
2023-05-10T12:03:14.761Z,17.92
2023-05-10T12:05:42.857Z,18.17
2023-05-10T12:08:13.865Z,18.05
2023-05-10T12:10:40.475Z,17.73
2023-05-10T12:13:12.100Z,17.05
2023-05-10T12:15:40.124Z,17.23
2023-05-10T12:18:08.812Z,18.55
2023-05-10T12:20:35.643Z,16.08
2023-05-10T12:23:03.281Z,14.88
2023-05-10T12:25:31.797Z,14.07
2023-05-10T12:28:00.407Z,13.85
2023-05-10T12:30:28.150Z,13.00
2023-05-10T12:33:01.260Z,12.32
2023-05-10T12:35:31.319Z,12.13
2023-05-10T12:37:57.962Z,11.80
2023-05-10T12:40:24.546Z,11.38
2023-05-10T12:42:51.662Z,11.80
2023-05-10T12:45:19.035Z,11.32
2023-05-10T12:47:45.587Z,9.57
2023-05-10T12:50:13.643Z,11.13
2023-05-10T12:52:40.203Z,11.43
2023-05-10T12:55:07.387Z,12.05
2023-05-10T12:57:33.934Z,11.65
2023-05-10T13:00:00.510Z,11.88
2023-05-10T13:02:27.177Z,11.82
2023-05-10T13:04:53.965Z,12.32
2023-05-10T13:07:21.942Z,10.93
2023-05-10T13:09:48.665Z,9.45
2023-05-10T13:12:15.233Z,7.32
2023-05-10T13:14:41.852Z,7.93
2023-05-10T13:17:08.532Z,8.02
2023-05-10T13:19:35.425Z,8.60
2023-05-10T13:22:01.978Z,11.93
2023-05-10T13:24:29.994Z,14.35
2023-05-10T13:26:56.642Z,12.10
2023-05-10T13:29:23.222Z,12.95
2023-05-10T13:31:49.939Z,11.95
2023-05-10T13:34:16.670Z,11.50
2023-05-10T13:36:43.267Z,9.52
2023-05-10T13:39:09.862Z,10.18
2023-05-10T13:41:37.838Z,9.55
2023-05-10T13:44:04.616Z,10.25
2023-05-10T13:46:31.266Z,10.45
2023-05-10T13:48:57.914Z,10.18
2023-05-10T13:51:24.520Z,10.80
2023-05-10T13:53:51.134Z,10.93
2023-05-10T13:56:17.679Z,10.52
2023-05-10T13:58:45.638Z,12.32
2023-05-10T14:01:12.250Z,12.40
2023-05-10T14:03:39.020Z,11.70
2023-05-10T14:06:05.981Z,11.77
2023-05-10T14:08:32.571Z,12.02
2023-05-10T14:10:59.114Z,10.85
2023-05-10T14:13:25.761Z,11.38
2023-05-10T14:15:54.630Z,14.32
2023-05-10T14:18:21.989Z,13.48
2023-05-10T14:20:48.562Z,13.70
2023-05-10T14:23:15.244Z,14.95
2023-05-10T14:25:42.016Z,13.60
2023-05-10T14:28:08.691Z,10.80
2023-05-10T14:30:35.311Z,10.27
2023-05-10T14:33:03.602Z,11.23
2023-05-10T14:35:30.569Z,11.57
2023-05-10T14:37:57.170Z,12.65
2023-05-10T14:40:23.703Z,11.55
2023-05-10T14:42:50.959Z,10.32
2023-05-10T14:45:18.011Z,10.85
2023-05-10T14:47:44.798Z,10.77
2023-05-10T14:50:21.511Z,11.43
2023-05-10T14:52:58.770Z,11.10
2023-05-10T14:55:25.477Z,12.35
2023-05-10T14:57:52.092Z,13.68
2023-05-10T15:00:19.411Z,14.20
2023-05-10T15:02:46.684Z,12.02
2023-05-10T15:05:15.953Z,10.98
2023-05-10T15:07:43.024Z,11.07
2023-05-10T15:10:10.279Z,10.75
2023-05-10T15:12:36.812Z,8.38
2023-05-10T15:15:03.721Z,8.07
2023-05-10T15:17:30.390Z,8.13
2023-05-10T15:19:56.992Z,8.85
2023-05-10T15:22:25.049Z,8.52
2023-05-10T15:24:51.585Z,8.27
2023-05-10T15:27:18.278Z,7.07
2023-05-10T15:29:44.883Z,6.05
2023-05-10T15:32:11.430Z,6.13
2023-05-10T15:34:38.018Z,5.10
2023-05-10T15:37:04.632Z,4.72
2023-05-10T15:39:32.572Z,5.72
2023-05-10T15:41:59.165Z,5.55
2023-05-10T15:44:25.894Z,5.55
2023-05-10T15:46:52.452Z,6.10
2023-05-10T15:49:19.081Z,6.53
2023-05-10T15:51:45.670Z,6.32
2023-05-10T15:54:12.222Z,6.22
2023-05-10T15:56:40.179Z,6.75
2023-05-10T15:59:06.750Z,5.60
2023-05-10T16:01:33.409Z,6.70
2023-05-10T16:04:00.404Z,6.75
2023-05-10T16:06:27.112Z,8.95
2023-05-10T16:08:54.702Z,9.15
2023-05-10T16:11:21.596Z,9.00
2023-05-10T16:13:49.649Z,9.18
2023-05-10T16:16:16.490Z,7.88
2023-05-10T16:18:43.250Z,7.45
2023-05-10T16:21:09.989Z,8.05
2023-05-10T16:23:36.703Z,6.38
2023-05-10T16:26:03.327Z,4.28
2023-05-10T16:28:30.105Z,4.93
2023-05-10T16:30:58.040Z,6.85
2023-05-10T16:33:24.969Z,6.40
2023-05-10T16:35:51.985Z,6.68
2023-05-10T16:38:18.729Z,5.28
2023-05-10T16:40:45.319Z,4.40
2023-05-10T16:43:11.881Z,4.20
2023-05-10T16:45:38.439Z,4.47
2023-05-10T16:48:06.875Z,4.70
2023-05-10T16:50:33.536Z,4.57
2023-05-10T16:53:00.126Z,4.03
2023-05-10T16:55:26.752Z,4.47
2023-05-10T16:57:53.395Z,4.50
2023-05-10T17:00:20.242Z,3.50
2023-05-10T17:02:47.126Z,3.17
2023-05-10T17:05:15.421Z,3.03
2023-05-10T17:07:42.215Z,2.90
2023-05-10T17:10:09.624Z,3.20
2023-05-10T17:12:36.391Z,2.70
2023-05-10T17:15:03.310Z,2.63
2023-05-10T17:17:30.053Z,2.67
2023-05-10T17:19:56.655Z,2.33
2023-05-10T17:22:24.892Z,2.60
2023-05-10T17:24:51.906Z,2.33
2023-05-10T17:27:18.444Z,2.72
2023-05-10T17:29:45.077Z,3.58
2023-05-10T17:32:11.701Z,4.65
2023-05-10T17:34:38.661Z,5.22
2023-05-10T17:37:05.315Z,5.68
2023-05-10T17:39:34.284Z,5.70
2023-05-10T17:42:00.847Z,4.85
2023-05-10T17:44:27.417Z,5.20
2023-05-10T17:46:54.028Z,4.10
2023-05-10T17:49:20.741Z,4.30
2023-05-10T17:51:47.526Z,4.10
2023-05-10T17:54:14.062Z,4.15
2023-05-10T17:56:42.229Z,4.05
2023-05-10T17:59:08.772Z,3.15
2023-05-10T18:01:35.487Z,3.90
2023-05-10T18:04:02.330Z,3.70
2023-05-10T18:06:29.340Z,3.80
2023-05-10T18:08:56.040Z,3.58
2023-05-10T18:11:24.884Z,4.05
2023-05-10T18:13:53.365Z,4.40
2023-05-10T18:16:20.284Z,4.82
2023-05-10T18:18:47.457Z,4.90
2023-05-10T18:21:14.249Z,5.40
2023-05-10T18:23:41.149Z,5.50
2023-05-10T18:26:08.083Z,5.20
2023-05-10T18:28:34.837Z,6.00
2023-05-10T18:31:03.094Z,5.70
2023-05-10T18:33:29.787Z,5.70
2023-05-10T18:35:58.467Z,5.25
2023-05-10T18:38:25.538Z,5.68
2023-05-10T18:40:53.945Z,5.70
2023-05-10T18:43:20.734Z,5.88
2023-05-10T18:45:47.576Z,6.13
2023-05-10T18:48:15.834Z,6.43
2023-05-10T18:50:42.697Z,6.68
2023-05-10T18:53:09.387Z,7.88
2023-05-10T18:55:36.105Z,7.72
2023-05-10T18:58:02.937Z,8.75
2023-05-10T19:00:32.020Z,8.68
2023-05-10T19:03:01.997Z,7.63
2023-05-10T19:05:30.531Z,8.18
2023-05-10T19:08:00.295Z,8.20
2023-05-10T19:10:31.106Z,7.90
2023-05-10T19:12:59.850Z,8.35
2023-05-10T19:15:29.253Z,8.00
2023-05-10T19:18:04.640Z,7.63
2023-05-10T19:20:35.053Z,7.70
2023-05-10T19:23:09.726Z,8.20
2023-05-10T19:25:37.326Z,8.00
2023-05-10T19:28:06.066Z,7.68
2023-05-10T19:30:35.383Z,8.40
2023-05-10T19:33:06.083Z,9.02
2023-05-10T19:35:36.218Z,8.18
2023-05-10T19:38:06.994Z,8.43
2023-05-10T19:40:33.830Z,8.82
2023-05-10T19:43:00.756Z,8.88
2023-05-10T19:45:29.799Z,8.98
2023-05-10T19:48:01.415Z,8.82
2023-05-10T19:50:32.286Z,8.77
2023-05-10T19:53:03.445Z,8.02
2023-05-10T19:55:31.475Z,8.75
2023-05-10T19:57:59.754Z,9.35
2023-05-10T20:00:27.815Z,8.70
2023-05-10T20:02:55.055Z,9.00
2023-05-10T20:05:22.141Z,9.20
2023-05-10T20:07:49.036Z,9.60
2023-05-10T20:10:21.655Z,9.35
2023-05-10T20:12:49.986Z,9.02
2023-05-10T20:15:17.382Z,9.73
2023-05-10T20:17:47.439Z,9.77
2023-05-10T20:20:16.307Z,10.57
2023-05-10T20:22:46.261Z,9.90
2023-05-10T20:25:14.020Z,9.52
2023-05-10T20:27:42.663Z,10.63
2023-05-10T20:30:11.907Z,9.48
2023-05-10T20:32:39.179Z,9.60
2023-05-10T20:35:06.911Z,10.68
2023-05-10T20:37:36.431Z,11.25
2023-05-10T20:40:03.456Z,10.82
2023-05-10T20:42:30.334Z,11.30
2023-05-10T20:44:58.739Z,12.45
2023-05-10T20:47:28.199Z,11.00
2023-05-10T20:50:09.169Z,11.27
2023-05-10T20:52:36.203Z,11.40
2023-05-10T20:55:03.004Z,11.27
2023-05-10T20:57:30.321Z,11.90
2023-05-10T20:59:59.487Z,12.07
2023-05-10T21:02:28.375Z,12.00
2023-05-10T21:04:57.758Z,11.88
2023-05-10T21:07:25.191Z,13.02
2023-05-10T21:09:52.309Z,12.52
2023-05-10T21:12:19.289Z,12.60
2023-05-10T21:14:46.206Z,12.02
2023-05-10T21:17:23.592Z,12.13
2023-05-10T21:19:58.669Z,12.57
2023-05-10T21:22:28.467Z,12.68
2023-05-10T21:24:55.392Z,12.43
2023-05-10T21:27:24.694Z,12.52
2023-05-10T21:29:51.530Z,12.45
2023-05-10T21:32:18.820Z,12.88
2023-05-10T21:34:47.129Z,12.20
2023-05-10T21:37:17.428Z,13.05
2023-05-10T21:39:44.202Z,13.38
2023-05-10T21:42:10.964Z,13.43
2023-05-10T21:44:40.689Z,13.60
2023-05-10T21:47:07.423Z,13.77
2023-05-10T21:49:34.262Z,13.82
2023-05-10T21:52:02.409Z,14.40
2023-05-10T21:54:29.387Z,13.77
2023-05-10T21:56:58.134Z,14.50
2023-05-10T21:59:25.005Z,15.45
2023-05-10T22:01:51.829Z,15.55
2023-05-10T22:04:18.532Z,15.82
2023-05-10T22:06:45.249Z,15.52
2023-05-10T22:09:13.361Z,15.48
2023-05-10T22:11:40.039Z,15.57
2023-05-10T22:14:06.822Z,15.75
2023-05-10T22:16:33.646Z,17.10
2023-05-10T22:19:00.603Z,15.65
2023-05-10T22:21:32.293Z,15.23
2023-05-10T22:24:02.264Z,14.98
2023-05-10T22:26:31.799Z,15.60
2023-05-10T22:29:00.041Z,16.92
2023-05-10T22:31:29.250Z,16.23
2023-05-10T22:33:56.023Z,16.80
2023-05-10T22:36:25.483Z,15.68
2023-05-10T22:38:52.177Z,14.60
2023-05-10T22:41:19.327Z,14.63
2023-05-10T22:43:49.812Z,14.35
2023-05-10T22:46:16.715Z,14.57
2023-05-10T22:48:43.461Z,14.10
2023-05-10T22:51:10.478Z,14.63
2023-05-10T22:53:37.465Z,14.77
2023-05-10T22:56:04.632Z,16.30
2023-05-10T22:58:31.538Z,16.45
2023-05-10T23:00:59.956Z,15.68
2023-05-10T23:03:26.973Z,15.65
2023-05-10T23:05:53.914Z,15.13
2023-05-10T23:08:20.669Z,15.80
2023-05-10T23:10:47.395Z,14.93
2023-05-10T23:13:14.217Z,15.05
2023-05-10T23:15:40.807Z,14.40
2023-05-10T23:18:12.027Z,15.10
2023-05-10T23:20:40.814Z,15.32
2023-05-10T23:23:07.559Z,14.07
2023-05-10T23:25:35.580Z,15.23
2023-05-10T23:28:05.062Z,14.75
2023-05-10T23:30:31.767Z,14.52
2023-05-10T23:33:00.185Z,14.93
2023-05-10T23:35:28.495Z,15.75
2023-05-10T23:37:55.284Z,16.20
2023-05-10T23:40:22.055Z,15.23
2023-05-10T23:42:48.813Z,16.77
2023-05-10T23:45:15.681Z,15.65
2023-05-10T23:47:42.356Z,15.70
2023-05-10T23:50:10.530Z,14.63
2023-05-10T23:52:41.019Z,14.32
2023-05-10T23:55:08.808Z,14.93
2023-05-10T23:57:35.510Z,13.98
